Time;durP1;ratioP1;P1;durP2;ratioP2;P2;SDS_P1;SDS_P2;PMS_P1;PMS_P2;Temp;Humidity;BMP_temperature;BMP_pressure;BME280_temperature;BME280_humidity;BME280_pressure;Samples;Min_cycle;Max_cycle;Signal;HPM_P1;HPM_P2
2024/01/16 00:00:34;;;;;;;9.60;6.33;;;2.40;99.90;;;;;;5034491;28;20186;-74
2024/01/16 00:02:59;;;;;;;8.43;6.30;;;2.40;99.90;;;;;;5033840;28;20525;-75
2024/01/16 00:05:25;;;;;;;10.47;6.47;;;2.40;99.90;;;;;;5015197;28;20420;-71
2024/01/16 00:07:51;;;;;;;8.77;6.70;;;2.40;99.90;;;;;;5033445;28;20741;-74
2024/01/16 00:10:16;;;;;;;11.43;6.33;;;2.40;99.90;;;;;;5033755;28;20191;-72
2024/01/16 00:12:42;;;;;;;11.77;6.87;;;2.40;99.90;;;;;;5034853;28;20225;-71
2024/01/16 00:15:09;;;;;;;12.07;6.80;;;2.40;99.90;;;;;;5033960;28;20194;-74
2024/01/16 00:17:35;;;;;;;10.83;6.73;;;2.30;99.90;;;;;;5016250;28;20202;-74
2024/01/16 00:20:01;;;;;;;6.63;5.10;;;2.40;99.90;;;;;;5034450;28;20958;-71
2024/01/16 00:22:27;;;;;;;11.10;6.93;;;2.30;99.90;;;;;;5033626;28;20491;-73
2024/01/16 00:24:53;;;;;;;7.63;6.33;;;2.40;99.90;;;;;;5034513;28;20468;-72
2024/01/16 00:27:19;;;;;;;10.27;6.00;;;2.40;99.90;;;;;;5033087;28;20437;-72
2024/01/16 00:29:44;;;;;;;11.23;7.10;;;2.40;99.90;;;;;;5034417;28;20185;-73
2024/01/16 00:32:10;;;;;;;14.80;6.40;;;2.40;99.90;;;;;;5034192;28;20207;-71
2024/01/16 00:34:36;;;;;;;8.80;5.60;;;2.40;99.90;;;;;;5032617;28;20189;-72
2024/01/16 00:37:02;;;;;;;6.53;5.67;;;2.40;99.90;;;;;;5034176;28;20414;-73
2024/01/16 00:39:27;;;;;;;8.90;5.80;;;2.40;99.90;;;;;;5034827;28;20193;-71
2024/01/16 00:41:53;;;;;;;11.90;6.77;;;2.40;99.90;;;;;;5035712;28;20190;-70
2024/01/16 00:44:18;;;;;;;9.00;6.13;;;2.40;99.90;;;;;;5034240;28;20263;-71
2024/01/16 00:46:44;;;;;;;7.43;6.53;;;2.40;99.90;;;;;;5035137;28;20189;-73
2024/01/16 00:49:10;;;;;;;8.17;6.00;;;2.40;99.90;;;;;;5034081;28;20182;-71
2024/01/16 00:51:36;;;;;;;7.90;6.50;;;2.40;99.90;;;;;;5033587;28;20277;-70
2024/01/16 00:54:01;;;;;;;7.40;5.80;;;2.30;99.90;;;;;;5034876;28;20666;-74
2024/01/16 00:56:27;;;;;;;8.33;5.90;;;2.30;99.90;;;;;;5034379;28;20178;-70
2024/01/16 00:58:56;;;;;;;7.10;6.20;;;2.30;99.90;;;;;;5035116;28;20178;-73
2024/01/16 01:01:22;;;;;;;9.00;5.53;;;2.30;99.90;;;;;;5033891;28;20428;-73
2024/01/16 01:03:47;;;;;;;10.20;5.83;;;2.30;99.90;;;;;;5035498;28;21348;-73
2024/01/16 01:06:13;;;;;;;11.13;6.67;;;2.30;99.90;;;;;;5034028;28;20236;-73
2024/01/16 01:08:39;;;;;;;10.73;6.27;;;2.40;99.90;;;;;;5034470;28;20213;-72
2024/01/16 01:11:04;;;;;;;7.10;5.97;;;2.40;99.90;;;;;;5034864;28;20424;-73
2024/01/16 01:13:30;;;;;;;9.07;6.57;;;2.40;99.90;;;;;;5034345;28;20248;-76
2024/01/16 01:15:56;;;;;;;8.47;5.97;;;2.30;99.90;;;;;;5034061;28;20198;-73
2024/01/16 01:18:22;;;;;;;9.10;5.80;;;2.30;99.90;;;;;;5033586;28;20185;-76
2024/01/16 01:20:48;;;;;;;7.50;5.47;;;2.30;99.90;;;;;;5034185;28;20272;-74
2024/01/16 01:23:13;;;;;;;7.47;5.47;;;2.30;99.90;;;;;;5033787;28;20471;-71
2024/01/16 01:25:39;;;;;;;8.80;5.30;;;2.30;99.90;;;;;;5034233;28;20558;-71
2024/01/16 01:28:05;;;;;;;8.33;5.63;;;2.30;99.90;;;;;;5034698;28;20799;-71
2024/01/16 01:30:32;;;;;;;14.33;6.50;;;2.30;99.90;;;;;;5034091;28;20192;-74
2024/01/16 01:32:57;;;;;;;6.97;4.67;;;2.30;99.90;;;;;;5015711;28;20215;-72
2024/01/16 01:35:23;;;;;;;8.93;4.97;;;2.30;99.90;;;;;;5000796;28;20491;-70
2024/01/16 01:37:49;;;;;;;5.50;4.60;;;2.30;99.90;;;;;;5015423;28;20198;-71
2024/01/16 01:40:15;;;;;;;5.80;4.53;;;2.30;99.90;;;;;;5033381;28;20218;-73
2024/01/16 01:42:44;;;;;;;6.30;4.40;;;2.30;99.90;;;;;;5033542;28;20181;-71
2024/01/16 01:45:10;;;;;;;5.90;5.00;;;2.30;99.90;;;;;;5032675;28;20425;-71
2024/01/16 01:47:42;;;;;;;7.60;4.87;;;2.30;99.90;;;;;;5033612;28;20425;-74
2024/01/16 01:50:09;;;;;;;9.00;4.53;;;2.30;99.90;;;;;;5032478;28;20417;-73
2024/01/16 01:52:36;;;;;;;7.57;5.00;;;2.20;99.90;;;;;;5033862;28;20448;-73
2024/01/16 01:55:03;;;;;;;7.03;4.40;;;2.30;99.90;;;;;;5016987;28;20511;-70
2024/01/16 01:57:29;;;;;;;6.50;4.57;;;2.20;99.90;;;;;;5042103;28;20409;-70
2024/01/16 01:59:55;;;;;;;8.57;5.53;;;2.20;99.90;;;;;;5044360;28;20428;-71
2024/01/16 02:02:22;;;;;;;7.23;4.23;;;2.20;99.90;;;;;;5041350;28;20492;-71
2024/01/16 02:04:47;;;;;;;8.57;4.60;;;2.30;99.90;;;;;;5033667;28;20995;-73
2024/01/16 02:07:15;;;;;;;7.90;4.93;;;2.30;99.90;;;;;;4999172;28;20432;-73
2024/01/16 02:09:41;;;;;;;6.10;3.97;;;2.30;99.90;;;;;;5034654;28;20193;-75
2024/01/16 02:12:07;;;;;;;8.03;4.30;;;2.30;99.90;;;;;;5033107;28;20487;-70
2024/01/16 02:14:33;;;;;;;9.30;4.70;;;2.20;99.90;;;;;;5034166;28;20212;-72
2024/01/16 02:16:58;;;;;;;6.40;4.63;;;2.30;99.90;;;;;;5034015;28;20472;-70
2024/01/16 02:19:25;;;;;;;5.80;3.77;;;2.30;99.90;;;;;;5033181;28;20208;-75
2024/01/16 02:21:54;;;;;;;5.07;4.10;;;2.30;99.90;;;;;;5033453;28;20186;-72
2024/01/16 02:24:21;;;;;;;6.83;4.70;;;2.30;99.90;;;;;;5032377;28;20473;-72
2024/01/16 02:26:46;;;;;;;7.23;4.50;;;2.30;99.90;;;;;;5016062;28;21757;-72
2024/01/16 02:29:13;;;;;;;9.53;4.70;;;2.30;99.90;;;;;;5032153;28;20497;-72
2024/01/16 02:31:38;;;;;;;8.17;4.63;;;2.20;99.90;;;;;;5033980;28;20475;-76
2024/01/16 02:34:04;;;;;;;5.60;4.37;;;2.20;99.90;;;;;;5033526;28;20871;-72
2024/01/16 02:36:30;;;;;;;7.50;4.97;;;2.20;99.90;;;;;;5033175;28;20523;-73
2024/01/16 02:38:56;;;;;;;7.77;5.30;;;2.20;99.90;;;;;;5034099;28;20231;-69
2024/01/16 02:41:22;;;;;;;6.70;5.23;;;2.30;99.90;;;;;;5031659;28;20820;-74
2024/01/16 02:43:48;;;;;;;8.77;5.73;;;2.30;99.90;;;;;;5033528;28;20218;-75
2024/01/16 02:46:14;;;;;;;8.10;5.33;;;2.30;99.90;;;;;;5032148;28;20629;-73
2024/01/16 02:48:42;;;;;;;11.30;6.50;;;2.30;99.90;;;;;;5033397;28;20229;-72
2024/01/16 02:51:08;;;;;;;11.50;6.03;;;2.30;99.90;;;;;;5031715;28;20429;-71
2024/01/16 02:53:34;;;;;;;11.50;7.40;;;2.30;99.90;;;;;;5033340;28;20785;-74
2024/01/16 02:56:00;;;;;;;9.07;6.67;;;2.20;99.90;;;;;;5033271;28;20432;-72
2024/01/16 02:58:30;;;;;;;8.20;5.80;;;2.30;99.90;;;;;;5037622;28;20561;-70
2024/01/16 03:00:57;;;;;;;8.23;6.20;;;2.30;99.90;;;;;;5037850;28;20424;-74
2024/01/16 03:03:23;;;;;;;9.37;6.67;;;2.30;99.90;;;;;;5036736;28;20507;-71
2024/01/16 03:05:49;;;;;;;8.77;6.53;;;2.30;99.90;;;;;;5037153;28;20420;-73
2024/01/16 03:08:15;;;;;;;10.67;7.20;;;2.30;99.90;;;;;;5036635;28;20434;-75
2024/01/16 03:10:41;;;;;;;9.63;7.20;;;2.30;99.90;;;;;;5019332;28;20174;-73
2024/01/16 03:13:07;;;;;;;9.33;7.67;;;2.30;99.90;;;;;;5037405;28;20432;-73
2024/01/16 03:15:32;;;;;;;13.10;9.07;;;2.30;99.90;;;;;;5036401;28;20436;-71
2024/01/16 03:18:00;;;;;;;14.70;10.30;;;2.30;99.90;;;;;;5037515;28;20400;-74
2024/01/16 03:20:26;;;;;;;14.73;9.20;;;2.30;99.90;;;;;;5019034;28;20225;-73
2024/01/16 03:22:51;;;;;;;12.70;9.60;;;2.30;99.90;;;;;;5036947;28;20433;-75
2024/01/16 03:25:17;;;;;;;13.57;10.20;;;2.30;99.90;;;;;;5036515;28;20444;-72
2024/01/16 03:27:44;;;;;;;15.13;11.47;;;2.30;99.90;;;;;;5036247;28;20177;-71
2024/01/16 03:30:10;;;;;;;17.73;12.43;;;2.30;99.90;;;;;;5036066;28;21018;-74
2024/01/16 03:32:36;;;;;;;19.73;13.60;;;2.30;99.90;;;;;;5037363;28;20416;-74
2024/01/16 03:35:02;;;;;;;19.43;14.30;;;2.30;99.90;;;;;;5035973;28;20435;-72
2024/01/16 03:37:28;;;;;;;16.60;11.97;;;2.30;99.90;;;;;;5035998;28;20421;-74
2024/01/16 03:39:54;;;;;;;20.67;14.17;;;2.30;99.90;;;;;;5036433;28;20569;-75
2024/01/16 03:42:20;;;;;;;19.60;14.10;;;2.30;99.90;;;;;;5035644;28;20186;-73
2024/01/16 03:44:46;;;;;;;20.93;14.67;;;2.30;99.90;;;;;;5036811;28;20996;-73
2024/01/16 03:47:12;;;;;;;19.00;15.00;;;2.30;99.90;;;;;;5017658;28;20417;-73
2024/01/16 03:49:38;;;;;;;22.40;15.30;;;2.30;99.90;;;;;;5037006;28;20467;-73
2024/01/16 03:52:04;;;;;;;22.23;14.60;;;2.40;99.90;;;;;;5035583;28;20204;-70
2024/01/16 03:54:30;;;;;;;21.80;14.33;;;2.40;99.90;;;;;;5036574;28;20591;-73
2024/01/16 03:56:56;;;;;;;22.10;15.43;;;2.30;99.90;;;;;;5036585;28;20432;-75
2024/01/16 03:59:23;;;;;;;20.53;15.10;;;2.30;99.90;;;;;;5035770;28;20182;-72
2024/01/16 04:01:49;;;;;;;19.47;14.63;;;2.30;99.90;;;;;;5035581;28;20524;-74
2024/01/16 04:04:17;;;;;;;19.93;14.23;;;2.30;99.90;;;;;;5035508;28;20555;-71
2024/01/16 04:06:43;;;;;;;18.50;13.20;;;2.30;99.90;;;;;;5035150;28;20261;-73
2024/01/16 04:09:13;;;;;;;17.47;13.73;;;2.30;99.90;;;;;;5034656;28;20520;-70
2024/01/16 04:11:39;;;;;;;22.10;15.00;;;2.30;99.90;;;;;;5035145;28;20587;-73
2024/01/16 04:14:05;;;;;;;21.77;13.37;;;2.30;99.90;;;;;;5035356;28;20437;-74
2024/01/16 04:16:30;;;;;;;21.07;14.30;;;2.30;99.90;;;;;;5018276;28;20212;-70
2024/01/16 04:18:56;;;;;;;21.07;14.10;;;2.30;99.90;;;;;;5036426;28;20421;-73
2024/01/16 04:21:22;;;;;;;21.77;14.17;;;2.40;99.90;;;;;;5035205;28;20276;-73
2024/01/16 04:23:47;;;;;;;21.43;13.90;;;2.30;99.90;;;;;;5036457;28;20307;-70
2024/01/16 04:26:13;;;;;;;21.60;15.17;;;2.30;99.90;;;;;;5033704;28;20177;-73
2024/01/16 04:28:39;;;;;;;21.23;13.97;;;2.40;99.90;;;;;;5036290;28;20522;-73
2024/01/16 04:31:05;;;;;;;25.20;14.23;;;2.30;99.90;;;;;;5034983;28;20891;-71
2024/01/16 04:33:31;;;;;;;18.77;13.13;;;2.30;99.90;;;;;;5036074;28;20194;-69
2024/01/16 04:35:57;;;;;;;17.93;13.43;;;2.30;99.90;;;;;;5035598;28;20439;-71
2024/01/16 04:38:23;;;;;;;20.00;13.17;;;2.30;99.90;;;;;;5036329;28;21468;-69
2024/01/16 04:40:49;;;;;;;20.23;14.03;;;2.30;99.90;;;;;;5036282;28;20425;-74
2024/01/16 04:43:15;;;;;;;19.10;13.00;;;2.30;99.90;;;;;;5034548;28;20845;-74
2024/01/16 04:45:40;;;;;;;18.93;12.40;;;2.30;99.90;;;;;;5035503;28;20473;-74
2024/01/16 04:48:08;;;;;;;18.13;13.60;;;2.40;99.90;;;;;;5034767;28;20185;-73
2024/01/16 04:50:34;;;;;;;18.47;13.17;;;2.40;99.90;;;;;;5016631;28;20216;-70
2024/01/16 04:53:00;;;;;;;17.80;12.10;;;2.40;99.90;;;;;;5034786;28;20429;-74
2024/01/16 04:55:27;;;;;;;19.47;12.53;;;2.40;99.90;;;;;;5035000;28;20432;-73
2024/01/16 04:57:54;;;;;;;20.13;12.87;;;2.40;99.90;;;;;;5035172;28;20809;-70
2024/01/16 05:00:20;;;;;;;19.63;11.53;;;2.40;99.90;;;;;;5034185;28;20735;-71
2024/01/16 05:02:46;;;;;;;16.53;10.80;;;2.40;99.90;;;;;;5035268;28;20429;-71
2024/01/16 05:05:12;;;;;;;16.80;11.20;;;2.40;99.90;;;;;;5034183;28;20433;-70
2024/01/16 05:07:38;;;;;;;14.00;9.57;;;2.40;99.90;;;;;;5035746;28;20427;-74
2024/01/16 05:10:04;;;;;;;19.10;10.13;;;2.40;99.90;;;;;;5033352;28;20432;-72
2024/01/16 05:12:30;;;;;;;12.83;9.80;;;2.40;99.90;;;;;;5035280;28;20186;-73
2024/01/16 05:14:55;;;;;;;13.73;9.60;;;2.40;99.90;;;;;;5034373;28;21007;-72
2024/01/16 05:17:21;;;;;;;12.80;8.97;;;2.40;99.90;;;;;;5016585;28;20225;-72
2024/01/16 05:19:47;;;;;;;16.67;9.97;;;2.40;99.90;;;;;;5035321;28;20181;-72
2024/01/16 05:22:12;;;;;;;12.70;8.63;;;2.40;99.90;;;;;;5033887;28;20911;-72
2024/01/16 05:24:38;;;;;;;11.00;8.20;;;2.40;99.90;;;;;;5034990;28;20233;-73
2024/01/16 05:27:08;;;;;;;12.33;7.87;;;2.40;99.90;;;;;;5014933;28;20221;-71
2024/01/16 05:29:37;;;;;;;12.63;7.70;;;2.40;99.90;;;;;;5032077;28;20209;-71
2024/01/16 05:32:03;;;;;;;11.63;7.70;;;2.40;99.90;;;;;;5031063;28;20935;-71
2024/01/16 05:34:29;;;;;;;10.70;8.07;;;2.40;99.90;;;;;;5031963;28;20447;-73
2024/01/16 05:36:55;;;;;;;10.50;7.43;;;2.40;99.90;;;;;;5032964;28;20436;-72
2024/01/16 05:39:21;;;;;;;11.20;8.53;;;2.40;99.90;;;;;;5029036;28;20214;-74
2024/01/16 05:41:46;;;;;;;12.90;6.90;;;2.40;99.90;;;;;;5014675;28;20446;-72
2024/01/16 05:44:12;;;;;;;10.90;7.30;;;2.40;99.90;;;;;;5033291;28;20643;-74
2024/01/16 05:46:38;;;;;;;10.10;7.17;;;2.40;99.90;;;;;;5034076;28;20177;-72
2024/01/16 05:49:03;;;;;;;10.50;7.60;;;2.40;99.90;;;;;;5029026;28;20789;-71
2024/01/16 05:51:29;;;;;;;10.87;8.00;;;2.40;99.90;;;;;;5030398;28;20585;-73
2024/01/16 05:53:55;;;;;;;11.10;8.30;;;2.40;99.90;;;;;;5032150;28;20190;-72
2024/01/16 05:56:21;;;;;;;13.30;8.40;;;2.40;99.90;;;;;;5034523;28;20417;-70
2024/01/16 05:58:47;;;;;;;10.73;7.50;;;2.40;99.90;;;;;;5032816;28;20450;-70
2024/01/16 06:01:13;;;;;;;9.53;8.20;;;2.30;99.90;;;;;;5029733;28;20205;-72
2024/01/16 06:03:39;;;;;;;11.07;7.50;;;2.30;99.90;;;;;;5034623;28;20212;-72
2024/01/16 06:06:05;;;;;;;8.10;6.57;;;2.30;99.90;;;;;;5032862;28;20562;-74
2024/01/16 06:08:31;;;;;;;9.00;7.00;;;2.30;99.90;;;;;;5034392;28;20425;-70
2024/01/16 06:10:57;;;;;;;9.20;8.03;;;2.40;99.90;;;;;;5033669;28;20426;-71
2024/01/16 06:13:23;;;;;;;13.40;7.80;;;2.40;99.90;;;;;;5034090;28;20248;-70
2024/01/16 06:15:48;;;;;;;11.80;8.83;;;2.40;99.90;;;;;;5016085;28;20200;-75
2024/01/16 06:18:14;;;;;;;14.47;8.40;;;2.30;99.90;;;;;;5032926;28;20633;-74
2024/01/16 06:20:40;;;;;;;12.10;8.63;;;2.40;99.90;;;;;;5033515;28;20186;-73
2024/01/16 06:23:05;;;;;;;18.43;11.17;;;2.40;99.90;;;;;;5032487;28;20694;-71
2024/01/16 06:25:31;;;;;;;11.53;9.83;;;2.40;99.90;;;;;;5034078;28;20425;-73
2024/01/16 06:27:57;;;;;;;14.07;9.80;;;2.40;99.90;;;;;;5033547;28;20280;-71
2024/01/16 06:30:25;;;;;;;17.90;10.60;;;2.40;99.90;;;;;;5033719;28;20193;-73
2024/01/16 06:32:51;;;;;;;16.80;11.60;;;2.40;99.90;;;;;;5032123;28;20186;-73
2024/01/16 06:35:16;;;;;;;16.00;12.10;;;2.40;99.90;;;;;;5015681;28;20439;-74
2024/01/16 06:37:43;;;;;;;15.20;12.07;;;2.30;99.90;;;;;;5033773;28;20182;-72
2024/01/16 06:40:09;;;;;;;16.87;12.53;;;2.30;99.90;;;;;;5033391;28;20185;-72
2024/01/16 06:42:36;;;;;;;16.00;11.10;;;2.30;99.90;;;;;;5014903;28;20489;-72
2024/01/16 06:45:02;;;;;;;17.77;11.90;;;2.30;99.90;;;;;;5030638;28;20480;-71
2024/01/16 06:47:28;;;;;;;18.37;13.17;;;2.30;99.90;;;;;;5013997;28;20984;-72
2024/01/16 06:49:54;;;;;;;17.00;12.53;;;2.30;99.90;;;;;;5013567;28;20430;-69
2024/01/16 06:52:19;;;;;;;22.37;13.43;;;2.30;99.90;;;;;;5032873;28;20190;-69
2024/01/16 06:54:45;;;;;;;17.70;13.30;;;2.30;99.90;;;;;;5011354;28;20173;-71
2024/01/16 06:57:11;;;;;;;19.07;13.47;;;2.30;99.90;;;;;;5027050;28;20192;-70
2024/01/16 06:59:36;;;;;;;19.40;14.00;;;2.30;99.90;;;;;;5031705;28;20719;-73
2024/01/16 07:02:03;;;;;;;18.00;13.53;;;2.30;99.90;;;;;;5028117;28;20218;-70
2024/01/16 07:04:29;;;;;;;18.87;12.57;;;2.30;99.90;;;;;;5032320;28;20224;-72
2024/01/16 07:06:55;;;;;;;18.17;13.30;;;2.30;99.90;;;;;;5012657;28;20432;-71
2024/01/16 07:09:20;;;;;;;22.23;13.70;;;2.20;99.90;;;;;;5031763;28;20300;-71
2024/01/16 07:11:47;;;;;;;18.63;12.33;;;2.20;99.90;;;;;;5032797;28;20459;-71
2024/01/16 07:14:13;;;;;;;19.50;14.10;;;2.20;99.90;;;;;;5032645;28;20418;-72
2024/01/16 07:16:39;;;;;;;20.33;14.10;;;2.20;99.90;;;;;;5031424;28;20965;-71
2024/01/16 07:19:05;;;;;;;23.63;12.97;;;2.20;99.90;;;;;;5030051;28;20456;-71
2024/01/16 07:21:31;;;;;;;16.03;12.23;;;2.10;99.90;;;;;;5032641;28;20460;-71
2024/01/16 07:23:57;;;;;;;19.00;12.40;;;2.10;99.90;;;;;;5031394;28;20217;-71
2024/01/16 07:26:23;;;;;;;18.40;11.37;;;2.10;99.90;;;;;;5031148;28;20433;-72
2024/01/16 07:28:49;;;;;;;17.33;11.00;;;2.10;99.90;;;;;;5030950;28;20432;-72
2024/01/16 07:31:16;;;;;;;12.07;10.00;;;2.10;99.90;;;;;;5032107;28;21723;-72
2024/01/16 07:33:42;;;;;;;12.97;9.47;;;2.10;99.90;;;;;;5031949;28;20178;-72
2024/01/16 07:36:09;;;;;;;11.17;8.90;;;2.10;99.90;;;;;;5031230;28;20436;-72
2024/01/16 07:38:36;;;;;;;11.83;9.30;;;2.10;99.90;;;;;;5031645;28;20424;-72
2024/01/16 07:41:02;;;;;;;12.30;9.13;;;2.10;99.90;;;;;;5028542;28;20507;-72
2024/01/16 07:43:29;;;;;;;10.47;8.67;;;2.10;99.90;;;;;;5032004;28;20474;-72
2024/01/16 07:45:55;;;;;;;13.40;9.33;;;2.10;99.90;;;;;;5035231;28;20428;-72
2024/01/16 07:48:22;;;;;;;12.00;8.80;;;2.10;99.90;;;;;;5036526;28;20794;-72
2024/01/16 07:50:48;;;;;;;13.60;8.50;;;2.10;99.90;;;;;;5037256;28;20447;-72
2024/01/16 07:53:15;;;;;;;11.07;7.87;;;2.00;99.90;;;;;;5050893;28;20424;-72
2024/01/16 07:55:41;;;;;;;14.83;8.60;;;2.00;99.90;;;;;;5048693;28;20455;-72
2024/01/16 07:58:07;;;;;;;9.33;7.20;;;2.00;99.90;;;;;;5026136;28;21346;-72
2024/01/16 08:00:32;;;;;;;10.70;6.80;;;1.90;99.90;;;;;;5036621;28;20523;-72
2024/01/16 08:02:58;;;;;;;12.90;7.40;;;1.90;99.90;;;;;;5036206;28;20178;-71
2024/01/16 08:05:27;;;;;;;8.10;6.57;;;1.90;99.90;;;;;;5018965;28;20205;-72
2024/01/16 08:07:53;;;;;;;9.00;7.10;;;1.90;99.90;;;;;;5034501;28;20644;-72
2024/01/16 08:10:19;;;;;;;12.90;6.87;;;2.00;99.90;;;;;;5035777;28;20512;-72
2024/01/16 08:12:45;;;;;;;9.40;6.27;;;1.90;99.90;;;;;;5035080;28;20523;-72
2024/01/16 08:15:11;;;;;;;8.00;5.83;;;1.90;99.90;;;;;;5034139;28;20188;-71
2024/01/16 08:17:37;;;;;;;9.40;5.87;;;1.90;99.90;;;;;;5035994;28;20425;-72
2024/01/16 08:20:03;;;;;;;7.00;5.20;;;1.90;99.90;;;;;;5032860;28;20190;-72
2024/01/16 08:22:29;;;;;;;9.00;5.30;;;1.90;99.90;;;;;;5035801;28;20182;-72
2024/01/16 08:24:55;;;;;;;6.97;5.90;;;1.90;99.90;;;;;;5034994;28;21039;-72
2024/01/16 08:27:20;;;;;;;8.73;5.33;;;1.90;99.90;;;;;;5018104;28;20307;-72
2024/01/16 08:29:49;;;;;;;7.47;4.70;;;1.90;99.90;;;;;;5033206;28;20855;-72
2024/01/16 08:32:16;;;;;;;6.77;3.97;;;1.90;99.90;;;;;;5035522;28;20192;-72
2024/01/16 08:34:42;;;;;;;7.83;4.20;;;1.90;99.90;;;;;;5034288;28;20432;-72
2024/01/16 08:37:09;;;;;;;7.10;4.53;;;1.90;99.90;;;;;;5034795;28;20434;-72
2024/01/16 08:39:35;;;;;;;9.30;4.23;;;1.90;99.90;;;;;;5035734;28;20436;-72
2024/01/16 08:42:02;;;;;;;6.63;4.20;;;1.90;99.90;;;;;;5034012;28;20456;-72
2024/01/16 08:44:28;;;;;;;5.80;4.10;;;1.90;99.90;;;;;;5034232;28;20223;-72
2024/01/16 08:46:54;;;;;;;8.30;4.43;;;1.90;99.90;;;;;;5034033;28;20481;-72
2024/01/16 08:49:20;;;;;;;7.30;4.03;;;1.90;99.90;;;;;;5016169;28;20429;-72
2024/01/16 08:51:46;;;;;;;4.20;3.40;;;1.90;99.90;;;;;;5033733;28;20440;-72
2024/01/16 08:54:11;;;;;;;7.83;3.47;;;1.90;99.90;;;;;;5033801;28;20185;-72
2024/01/16 08:56:37;;;;;;;8.33;3.27;;;1.90;99.90;;;;;;5034368;28;20198;-72
2024/01/16 08:59:03;;;;;;;4.07;2.93;;;1.90;99.90;;;;;;5033973;28;20181;-72
2024/01/16 09:01:28;;;;;;;4.60;3.20;;;1.90;99.90;;;;;;5034226;28;20186;-72
2024/01/16 09:03:54;;;;;;;7.67;3.67;;;1.90;99.90;;;;;;5033456;28;20719;-72
2024/01/16 09:06:20;;;;;;;7.80;3.60;;;2.00;99.90;;;;;;5034308;28;20191;-72
2024/01/16 09:08:46;;;;;;;6.83;3.80;;;2.00;99.90;;;;;;5017177;28;20216;-72
2024/01/16 09:11:12;;;;;;;9.07;3.00;;;2.00;99.90;;;;;;5033462;28;20186;-72
2024/01/16 09:13:38;;;;;;;4.57;2.90;;;2.00;99.90;;;;;;5034726;28;21269;-72
2024/01/16 09:16:05;;;;;;;4.23;3.17;;;2.00;99.90;;;;;;5034000;28;20209;-72
2024/01/16 09:18:30;;;;;;;8.43;3.67;;;2.10;99.90;;;;;;5034497;28;20425;-72
2024/01/16 09:20:56;;;;;;;6.80;3.30;;;2.00;99.90;;;;;;5016746;28;20479;-72
2024/01/16 09:23:23;;;;;;;10.20;4.17;;;2.00;99.90;;;;;;5033678;28;20595;-72
2024/01/16 09:25:49;;;;;;;7.83;3.40;;;2.00;99.90;;;;;;5033693;28;20937;-72
2024/01/16 09:28:15;;;;;;;8.00;3.20;;;2.00;99.90;;;;;;5034458;28;20432;-72
2024/01/16 09:30:42;;;;;;;9.77;3.57;;;2.00;99.90;;;;;;5033413;28;21197;-72
2024/01/16 09:33:10;;;;;;;6.70;2.83;;;2.00;99.90;;;;;;5033725;28;20554;-72
2024/01/16 09:35:36;;;;;;;10.83;3.37;;;2.00;99.90;;;;;;5033859;28;21011;-72
2024/01/16 09:38:04;;;;;;;6.50;3.10;;;2.00;99.90;;;;;;5033034;28;20520;-72
2024/01/16 09:40:30;;;;;;;8.63;3.43;;;2.00;99.90;;;;;;5034203;28;20452;-72
2024/01/16 09:42:57;;;;;;;5.87;3.20;;;2.00;99.90;;;;;;5034254;28;21198;-72
2024/01/16 09:45:24;;;;;;;4.33;3.33;;;2.00;99.90;;;;;;5033243;28;20428;-72
2024/01/16 09:47:52;;;;;;;5.93;3.40;;;2.00;99.90;;;;;;5033492;28;20433;-71
2024/01/16 09:50:18;;;;;;;7.33;3.47;;;2.00;99.90;;;;;;5000241;28;20436;-71
2024/01/16 09:52:47;;;;;;;5.43;2.90;;;2.00;99.90;;;;;;5032974;28;21064;-72
2024/01/16 09:55:14;;;;;;;6.23;3.10;;;2.10;99.90;;;;;;5032707;28;20486;-72
2024/01/16 09:57:41;;;;;;;6.97;3.60;;;2.10;99.90;;;;;;5033168;28;20516;-71
2024/01/16 10:00:11;;;;;;;4.23;2.87;;;2.10;99.90;;;;;;5033996;28;20480;-71
2024/01/16 10:02:40;;;;;;;8.90;4.07;;;2.10;99.90;;;;;;5033034;28;20517;-71
2024/01/16 10:05:11;;;;;;;8.23;3.97;;;2.10;99.90;;;;;;5033588;28;21079;-71
2024/01/16 10:07:44;;;;;;;5.90;3.03;;;2.10;99.90;;;;;;5032858;28;21111;-72
2024/01/16 10:10:10;;;;;;;6.30;3.07;;;2.20;99.90;;;;;;5033249;28;20440;-71
2024/01/16 10:12:39;;;;;;;7.77;3.77;;;2.20;99.90;;;;;;5033730;28;20490;-72
2024/01/16 10:15:07;;;;;;;8.70;3.30;;;2.20;99.90;;;;;;5033047;28;20793;-71
2024/01/16 10:17:44;;;;;;;8.33;4.30;;;2.30;99.90;;;;;;5032634;28;20501;-71
2024/01/16 10:20:16;;;;;;;9.37;3.43;;;2.20;99.90;;;;;;5033556;28;20429;-71
2024/01/16 10:22:52;;;;;;;5.00;2.83;;;2.20;99.90;;;;;;5033150;28;20789;-71
2024/01/16 10:25:21;;;;;;;6.13;3.40;;;2.30;99.90;;;;;;5033733;28;20507;-71
2024/01/16 10:27:46;;;;;;;8.57;3.70;;;2.30;99.90;;;;;;5015711;28;20450;-72
2024/01/16 10:30:13;;;;;;;7.23;3.90;;;2.30;99.90;;;;;;5032393;28;20416;-71
2024/01/16 10:32:42;;;;;;;9.20;4.07;;;2.30;99.90;;;;;;5032988;28;20502;-71
2024/01/16 10:35:13;;;;;;;4.57;3.10;;;2.40;99.90;;;;;;5032384;28;20966;-71
2024/01/16 10:37:48;;;;;;;10.87;3.90;;;2.40;99.90;;;;;;5032275;28;20507;-72
2024/01/16 10:40:21;;;;;;;5.73;3.23;;;2.40;99.90;;;;;;5032423;28;20468;-71
2024/01/16 10:43:03;;;;;;;6.50;3.17;;;2.40;99.90;;;;;;5033418;28;20440;-72
2024/01/16 10:45:29;;;;;;;8.60;3.10;;;2.50;99.90;;;;;;5032863;28;20490;-71
2024/01/16 10:48:05;;;;;;;6.80;3.10;;;2.50;99.90;;;;;;5015271;28;20428;-71
2024/01/16 10:50:32;;;;;;;9.33;3.60;;;2.40;99.90;;;;;;5032504;28;20482;-72
2024/01/16 10:53:05;;;;;;;5.80;3.77;;;2.50;99.90;;;;;;5032334;28;20418;-71
2024/01/16 10:55:33;;;;;;;5.67;3.73;;;2.50;99.90;;;;;;5015685;28;20439;-72
2024/01/16 10:58:02;;;;;;;7.87;3.77;;;2.60;99.90;;;;;;5033105;28;20783;-72
2024/01/16 11:00:30;;;;;;;6.90;3.27;;;2.60;99.90;;;;;;5032552;28;20436;-72
2024/01/16 11:03:05;;;;;;;6.50;3.73;;;2.80;99.90;;;;;;5033310;28;20432;-71
2024/01/16 11:05:35;;;;;;;4.10;3.67;;;3.00;99.90;;;;;;4999232;28;20796;-71
2024/01/16 11:08:01;;;;;;;3.97;3.50;;;3.00;99.90;;;;;;5032794;28;20521;-72
2024/01/16 11:10:28;;;;;;;5.73;3.50;;;3.10;99.90;;;;;;5032852;28;20436;-71
2024/01/16 11:12:55;;;;;;;4.47;3.40;;;3.10;99.90;;;;;;5031770;28;20511;-71
2024/01/16 11:15:22;;;;;;;8.07;3.73;;;3.20;99.90;;;;;;5032184;28;20483;-71
2024/01/16 11:17:49;;;;;;;5.50;3.40;;;3.10;99.90;;;;;;5033833;28;21456;-71
2024/01/16 11:20:16;;;;;;;5.67;3.70;;;3.10;99.90;;;;;;5036274;28;20858;-72
2024/01/16 11:22:46;;;;;;;7.63;4.03;;;3.10;99.90;;;;;;5018049;28;20428;-72
2024/01/16 11:25:13;;;;;;;7.10;3.77;;;3.00;99.90;;;;;;5036339;28;20460;-72
2024/01/16 11:27:41;;;;;;;5.90;3.40;;;3.00;99.90;;;;;;5036089;28;20897;-72
2024/01/16 11:30:08;;;;;;;9.67;4.10;;;2.90;99.90;;;;;;5018784;28;20432;-71
2024/01/16 11:32:36;;;;;;;4.80;3.77;;;2.90;99.90;;;;;;5035405;28;20435;-71
2024/01/16 11:35:04;;;;;;;6.23;3.57;;;2.90;99.90;;;;;;5018254;28;20514;-72
2024/01/16 11:37:32;;;;;;;8.00;3.70;;;2.80;99.90;;;;;;5035503;28;20444;-71
2024/01/16 11:40:16;;;;;;;11.53;4.57;;;2.80;99.90;;;;;;5036477;28;20846;-72
2024/01/16 11:42:43;;;;;;;6.40;3.50;;;2.80;99.90;;;;;;5035790;28;20428;-71
2024/01/16 11:45:31;;;;;;;4.90;3.50;;;2.80;99.90;;;;;;5035832;28;20487;-72
2024/01/16 11:48:10;;;;;;;6.43;3.80;;;2.80;99.90;;;;;;5036410;28;20428;-71
2024/01/16 11:50:36;;;;;;;10.07;4.00;;;2.80;99.90;;;;;;5017831;28;20430;-73
2024/01/16 11:53:02;;;;;;;8.27;4.50;;;2.80;99.90;;;;;;5035636;28;20429;-72
2024/01/16 11:55:32;;;;;;;4.97;3.70;;;2.80;99.90;;;;;;5036208;28;20269;-72
2024/01/16 11:58:13;;;;;;;6.50;4.03;;;2.80;99.90;;;;;;5036571;28;21053;-72
2024/01/16 12:00:44;;;;;;;10.10;4.50;;;2.70;99.90;;;;;;5034727;28;20429;-72
2024/01/16 12:03:13;;;;;;;11.87;4.87;;;2.80;99.90;;;;;;5035491;28;20429;-71
2024/01/16 12:05:38;;;;;;;6.37;4.03;;;2.80;99.90;;;;;;5034606;28;21331;-71
2024/01/16 12:08:06;;;;;;;8.93;4.37;;;2.80;99.90;;;;;;5001538;28;20453;-71
2024/01/16 12:10:32;;;;;;;6.63;3.87;;;2.80;99.90;;;;;;5035461;28;20195;-72
2024/01/16 12:13:02;;;;;;;8.07;4.10;;;2.90;99.90;;;;;;5036254;28;20844;-72
2024/01/16 12:15:27;;;;;;;7.20;4.20;;;3.10;99.90;;;;;;5034665;28;20444;-72
2024/01/16 12:17:59;;;;;;;7.00;4.33;;;3.40;99.90;;;;;;5035223;28;20416;-71
2024/01/16 12:20:31;;;;;;;7.33;3.97;;;3.80;99.90;;;;;;5035160;28;20182;-72
2024/01/16 12:23:01;;;;;;;6.10;4.20;;;4.50;99.90;;;;;;5035895;28;20421;-71
2024/01/16 12:25:28;;;;;;;6.67;4.00;;;5.10;99.90;;;;;;5035050;28;20433;-72
2024/01/16 12:28:04;;;;;;;8.03;4.83;;;6.10;99.90;;;;;;5017301;28;20968;-72
2024/01/16 12:30:34;;;;;;;7.07;3.90;;;6.70;99.90;;;;;;5033652;28;20433;-71
2024/01/16 12:33:13;;;;;;;7.93;4.03;;;6.80;99.90;;;;;;5034993;28;20447;-72
2024/01/16 12:35:42;;;;;;;7.27;4.10;;;6.40;99.90;;;;;;5032623;28;20923;-72
2024/01/16 12:38:10;;;;;;;8.57;4.03;;;6.00;99.90;;;;;;5035361;28;20481;-71
2024/01/16 12:40:49;;;;;;;5.63;3.97;;;5.60;99.90;;;;;;5034019;28;20459;-72
2024/01/16 12:43:18;;;;;;;6.17;3.97;;;5.20;99.90;;;;;;5034270;28;20785;-71
2024/01/16 12:45:45;;;;;;;7.70;5.40;;;4.80;99.90;;;;;;5033514;28;20426;-71
2024/01/16 12:48:11;;;;;;;12.33;6.63;;;4.50;99.90;;;;;;5034915;28;20429;-71